sensor_id;sensor_type;location;lat;lon;timestamp;P1;P2;P0
49343;PMS5003;35210;41.606;-87.602;2023-04-24T00:00:22;7.80;7.80;3.40
49343;PMS5003;35210;41.606;-87.602;2023-04-24T00:02:52;6.20;6.20;3.00
49343;PMS5003;35210;41.606;-87.602;2023-04-24T00:05:24;3.80;3.80;2.60
49343;PMS5003;35210;41.606;-87.602;2023-04-24T00:07:53;5.80;4.80;2.40
49343;PMS5003;35210;41.606;-87.602;2023-04-24T00:10:21;3.80;3.20;2.00
49343;PMS5003;35210;41.606;-87.602;2023-04-24T00:12:49;5.40;3.80;3.00
49343;PMS5003;35210;41.606;-87.602;2023-04-24T00:15:18;5.20;5.20;3.00
49343;PMS5003;35210;41.606;-87.602;2023-04-24T00:17:47;4.20;4.20;2.00
49343;PMS5003;35210;41.606;-87.602;2023-04-24T00:20:16;3.00;3.00;2.00
49343;PMS5003;35210;41.606;-87.602;2023-04-24T00:22:46;3.00;3.00;2.00
49343;PMS5003;35210;41.606;-87.602;2023-04-24T00:25:15;5.40;3.80;2.00
49343;PMS5003;35210;41.606;-87.602;2023-04-24T00:27:44;2.80;2.80;2.00
49343;PMS5003;35210;41.606;-87.602;2023-04-24T00:30:12;3.00;3.00;2.00
49343;PMS5003;35210;41.606;-87.602;2023-04-24T00:32:40;4.00;4.00;2.00
49343;PMS5003;35210;41.606;-87.602;2023-04-24T00:35:08;3.00;3.00;2.00
49343;PMS5003;35210;41.606;-87.602;2023-04-24T00:37:37;3.00;3.00;1.00
49343;PMS5003;35210;41.606;-87.602;2023-04-24T00:40:08;3.00;3.00;2.00
49343;PMS5003;35210;41.606;-87.602;2023-04-24T00:42:36;3.20;3.20;2.00
49343;PMS5003;35210;41.606;-87.602;2023-04-24T00:45:05;3.00;3.00;2.00
49343;PMS5003;35210;41.606;-87.602;2023-04-24T00:47:34;2.20;2.20;2.20
49343;PMS5003;35210;41.606;-87.602;2023-04-24T00:50:04;3.00;3.00;2.00
49343;PMS5003;35210;41.606;-87.602;2023-04-24T00:52:33;4.40;2.20;1.60
49343;PMS5003;35210;41.606;-87.602;2023-04-24T00:55:02;1.80;1.80;1.00
49343;PMS5003;35210;41.606;-87.602;2023-04-24T00:57:33;3.00;3.00;1.60
49343;PMS5003;35210;41.606;-87.602;2023-04-24T01:00:02;2.40;2.40;1.20
49343;PMS5003;35210;41.606;-87.602;2023-04-24T01:02:38;4.00;4.00;2.00
49343;PMS5003;35210;41.606;-87.602;2023-04-24T01:05:09;3.00;3.00;1.00
49343;PMS5003;35210;41.606;-87.602;2023-04-24T01:07:38;4.00;4.00;2.00
49343;PMS5003;35210;41.606;-87.602;2023-04-24T01:10:10;4.80;4.80;2.00
49343;PMS5003;35210;41.606;-87.602;2023-04-24T01:12:42;4.40;4.40;2.00
49343;PMS5003;35210;41.606;-87.602;2023-04-24T01:15:10;3.20;3.20;2.00
49343;PMS5003;35210;41.606;-87.602;2023-04-24T01:17:39;2.20;2.20;1.80
49343;PMS5003;35210;41.606;-87.602;2023-04-24T01:20:07;3.00;3.00;2.00
49343;PMS5003;35210;41.606;-87.602;2023-04-24T01:22:38;4.00;3.20;2.00
49343;PMS5003;35210;41.606;-87.602;2023-04-24T01:25:07;2.00;2.00;1.00
49343;PMS5003;35210;41.606;-87.602;2023-04-24T01:27:36;2.60;2.20;1.80
49343;PMS5003;35210;41.606;-87.602;2023-04-24T01:30:05;2.00;2.00;2.00
49343;PMS5003;35210;41.606;-87.602;2023-04-24T01:32:34;2.00;2.00;1.00
49343;PMS5003;35210;41.606;-87.602;2023-04-24T01:35:02;4.00;3.00;2.00
49343;PMS5003;35210;41.606;-87.602;2023-04-24T01:37:32;3.40;3.00;2.00
49343;PMS5003;35210;41.606;-87.602;2023-04-24T01:40:01;2.00;2.00;1.60
49343;PMS5003;35210;41.606;-87.602;2023-04-24T01:42:30;3.20;3.20;2.00
49343;PMS5003;35210;41.606;-87.602;2023-04-24T01:44:59;2.00;2.00;1.40
49343;PMS5003;35210;41.606;-87.602;2023-04-24T01:47:29;3.00;3.00;2.00
49343;PMS5003;35210;41.606;-87.602;2023-04-24T01:49:58;3.80;2.00;1.80
49343;PMS5003;35210;41.606;-87.602;2023-04-24T01:52:26;4.00;3.00;1.00
49343;PMS5003;35210;41.606;-87.602;2023-04-24T01:54:56;3.00;3.00;1.60
49343;PMS5003;35210;41.606;-87.602;2023-04-24T01:57:29;4.20;2.40;1.00
49343;PMS5003;35210;41.606;-87.602;2023-04-24T01:59:57;3.00;3.00;2.00
49343;PMS5003;35210;41.606;-87.602;2023-04-24T02:02:26;2.60;2.60;2.00
49343;PMS5003;35210;41.606;-87.602;2023-04-24T02:04:54;3.00;3.00;1.60
49343;PMS5003;35210;41.606;-87.602;2023-04-24T02:07:22;3.00;3.00;0.80
49343;PMS5003;35210;41.606;-87.602;2023-04-24T02:09:50;4.60;4.60;2.80
49343;PMS5003;35210;41.606;-87.602;2023-04-24T02:12:20;0.80;0.80;0.00
49343;PMS5003;35210;41.606;-87.602;2023-04-24T02:14:48;2.20;2.20;1.00
49343;PMS5003;35210;41.606;-87.602;2023-04-24T02:17:17;3.00;3.00;1.00
49343;PMS5003;35210;41.606;-87.602;2023-04-24T02:19:45;2.20;2.20;2.00
49343;PMS5003;35210;41.606;-87.602;2023-04-24T02:22:13;2.00;2.00;1.00
49343;PMS5003;35210;41.606;-87.602;2023-04-24T02:24:41;2.00;2.00;1.40
49343;PMS5003;35210;41.606;-87.602;2023-04-24T02:27:10;3.80;3.80;2.00
49343;PMS5003;35210;41.606;-87.602;2023-04-24T02:29:40;6.20;4.40;1.20
49343;PMS5003;35210;41.606;-87.602;2023-04-24T02:32:08;2.00;2.00;0.00
49343;PMS5003;35210;41.606;-87.602;2023-04-24T02:34:37;7.80;3.80;2.40
49343;PMS5003;35210;41.606;-87.602;2023-04-24T02:37:05;3.80;3.20;2.00
49343;PMS5003;35210;41.606;-87.602;2023-04-24T02:39:33;3.40;3.40;2.00
49343;PMS5003;35210;41.606;-87.602;2023-04-24T02:42:02;3.00;3.00;1.00
49343;PMS5003;35210;41.606;-87.602;2023-04-24T02:44:30;3.00;3.00;1.40
49343;PMS5003;35210;41.606;-87.602;2023-04-24T02:47:00;4.00;4.00;2.00
49343;PMS5003;35210;41.606;-87.602;2023-04-24T02:49:29;2.20;2.20;2.00
49343;PMS5003;35210;41.606;-87.602;2023-04-24T02:51:57;2.00;2.00;1.40
49343;PMS5003;35210;41.606;-87.602;2023-04-24T02:54:25;2.40;2.40;1.00
49343;PMS5003;35210;41.606;-87.602;2023-04-24T02:56:53;4.80;2.00;1.40
49343;PMS5003;35210;41.606;-87.602;2023-04-24T02:59:22;3.20;3.20;1.00
49343;PMS5003;35210;41.606;-87.602;2023-04-24T03:01:52;2.60;2.60;1.40
49343;PMS5003;35210;41.606;-87.602;2023-04-24T03:04:22;2.60;2.60;2.00
49343;PMS5003;35210;41.606;-87.602;2023-04-24T03:06:50;5.00;5.00;2.40
49343;PMS5003;35210;41.606;-87.602;2023-04-24T03:09:20;3.00;3.00;0.20
49343;PMS5003;35210;41.606;-87.602;2023-04-24T03:11:48;3.80;3.80;1.20
49343;PMS5003;35210;41.606;-87.602;2023-04-24T03:14:17;3.60;3.60;2.00
49343;PMS5003;35210;41.606;-87.602;2023-04-24T03:16:45;3.00;3.00;1.20
49343;PMS5003;35210;41.606;-87.602;2023-04-24T03:19:13;3.20;3.20;2.00
49343;PMS5003;35210;41.606;-87.602;2023-04-24T03:21:42;3.00;3.00;2.00
49343;PMS5003;35210;41.606;-87.602;2023-04-24T03:24:11;4.00;4.00;2.00
49343;PMS5003;35210;41.606;-87.602;2023-04-24T03:26:39;5.80;4.00;3.00
49343;PMS5003;35210;41.606;-87.602;2023-04-24T03:29:07;4.00;4.00;2.00
49343;PMS5003;35210;41.606;-87.602;2023-04-24T03:31:35;4.40;4.40;3.00
49343;PMS5003;35210;41.606;-87.602;2023-04-24T03:34:03;2.80;2.00;1.80
49343;PMS5003;35210;41.606;-87.602;2023-04-24T03:36:31;3.00;3.00;1.20
49343;PMS5003;35210;41.606;-87.602;2023-04-24T03:39:01;2.60;2.60;2.00
49343;PMS5003;35210;41.606;-87.602;2023-04-24T03:41:30;3.60;3.60;2.00
49343;PMS5003;35210;41.606;-87.602;2023-04-24T03:43:59;4.20;3.20;2.00
49343;PMS5003;35210;41.606;-87.602;2023-04-24T03:46:27;2.80;2.80;1.80
49343;PMS5003;35210;41.606;-87.602;2023-04-24T03:48:55;7.00;5.00;2.20
49343;PMS5003;35210;41.606;-87.602;2023-04-24T03:51:24;4.00;4.00;2.00
49343;PMS5003;35210;41.606;-87.602;2023-04-24T03:53:53;7.00;4.40;2.00
49343;PMS5003;35210;41.606;-87.602;2023-04-24T03:56:22;4.60;4.60;2.00
49343;PMS5003;35210;41.606;-87.602;2023-04-24T03:58:50;4.00;3.20;1.80
49343;PMS5003;35210;41.606;-87.602;2023-04-24T04:01:19;4.00;4.00;3.00
49343;PMS5003;35210;41.606;-87.602;2023-04-24T04:03:47;3.00;3.00;1.00
49343;PMS5003;35210;41.606;-87.602;2023-04-24T04:06:16;4.00;4.00;2.80
49343;PMS5003;35210;41.606;-87.602;2023-04-24T04:08:44;4.40;4.00;2.00
49343;PMS5003;35210;41.606;-87.602;2023-04-24T04:11:13;3.00;3.00;2.00
49343;PMS5003;35210;41.606;-87.602;2023-04-24T04:13:43;4.40;4.40;2.60
49343;PMS5003;35210;41.606;-87.602;2023-04-24T04:16:13;4.60;3.40;2.20
49343;PMS5003;35210;41.606;-87.602;2023-04-24T04:18:42;5.80;5.80;3.00
49343;PMS5003;35210;41.606;-87.602;2023-04-24T04:21:10;2.00;2.00;0.80
49343;PMS5003;35210;41.606;-87.602;2023-04-24T04:23:38;3.40;3.00;3.00
49343;PMS5003;35210;41.606;-87.602;2023-04-24T04:26:07;4.20;4.20;2.00
49343;PMS5003;35210;41.606;-87.602;2023-04-24T04:28:35;4.00;4.00;3.00
49343;PMS5003;35210;41.606;-87.602;2023-04-24T04:31:05;4.00;4.00;3.00
49343;PMS5003;35210;41.606;-87.602;2023-04-24T04:33:34;5.80;5.40;3.60
49343;PMS5003;35210;41.606;-87.602;2023-04-24T04:36:04;7.80;4.60;2.40
49343;PMS5003;35210;41.606;-87.602;2023-04-24T04:38:33;8.20;6.40;4.00
49343;PMS5003;35210;41.606;-87.602;2023-04-24T04:41:02;6.20;6.20;3.00
49343;PMS5003;35210;41.606;-87.602;2023-04-24T04:43:31;6.60;6.60;2.80
49343;PMS5003;35210;41.606;-87.602;2023-04-24T04:46:00;6.00;6.00;3.00
49343;PMS5003;35210;41.606;-87.602;2023-04-24T04:48:31;4.80;4.40;2.60
49343;PMS5003;35210;41.606;-87.602;2023-04-24T04:50:59;5.80;5.80;3.80
49343;PMS5003;35210;41.606;-87.602;2023-04-24T04:53:27;8.20;7.80;4.00
49343;PMS5003;35210;41.606;-87.602;2023-04-24T04:55:55;3.00;1.80;1.00
49343;PMS5003;35210;41.606;-87.602;2023-04-24T04:58:23;8.00;7.00;3.60
49343;PMS5003;35210;41.606;-87.602;2023-04-24T05:00:51;8.00;8.00;5.80
49343;PMS5003;35210;41.606;-87.602;2023-04-24T05:03:22;9.60;9.60;5.40
49343;PMS5003;35210;41.606;-87.602;2023-04-24T05:05:52;6.40;5.40;2.60
49343;PMS5003;35210;41.606;-87.602;2023-04-24T05:08:20;5.40;5.40;3.00
49343;PMS5003;35210;41.606;-87.602;2023-04-24T05:10:48;7.00;7.00;4.00
49343;PMS5003;35210;41.606;-87.602;2023-04-24T05:13:16;5.20;5.20;4.00
49343;PMS5003;35210;41.606;-87.602;2023-04-24T05:15:44;6.60;6.60;2.80
49343;PMS5003;35210;41.606;-87.602;2023-04-24T05:18:13;4.00;4.00;2.00
49343;PMS5003;35210;41.606;-87.602;2023-04-24T05:20:42;6.60;4.80;3.40
49343;PMS5003;35210;41.606;-87.602;2023-04-24T05:23:11;4.20;4.20;2.00
49343;PMS5003;35210;41.606;-87.602;2023-04-24T05:25:39;7.00;7.00;3.00
49343;PMS5003;35210;41.606;-87.602;2023-04-24T05:28:09;4.80;2.00;2.00
49343;PMS5003;35210;41.606;-87.602;2023-04-24T05:30:37;7.60;6.20;2.80
49343;PMS5003;35210;41.606;-87.602;2023-04-24T05:33:05;3.60;3.60;2.20
49343;PMS5003;35210;41.606;-87.602;2023-04-24T05:35:34;4.00;4.00;3.00
49343;PMS5003;35210;41.606;-87.602;2023-04-24T05:38:02;6.00;6.00;3.00
49343;PMS5003;35210;41.606;-87.602;2023-04-24T05:40:32;4.40;4.00;2.20
49343;PMS5003;35210;41.606;-87.602;2023-04-24T05:43:00;3.20;3.20;2.80
49343;PMS5003;35210;41.606;-87.602;2023-04-24T05:45:28;7.20;6.00;4.00
49343;PMS5003;35210;41.606;-87.602;2023-04-24T05:47:57;6.00;6.00;3.00
49343;PMS5003;35210;41.606;-87.602;2023-04-24T05:50:25;9.20;6.20;3.00
49343;PMS5003;35210;41.606;-87.602;2023-04-24T05:52:53;6.40;5.80;3.00
49343;PMS5003;35210;41.606;-87.602;2023-04-24T05:55:23;8.00;8.00;5.80
49343;PMS5003;35210;41.606;-87.602;2023-04-24T05:57:53;7.20;7.00;4.00
49343;PMS5003;35210;41.606;-87.602;2023-04-24T06:00:21;12.00;9.60;6.20
49343;PMS5003;35210;41.606;-87.602;2023-04-24T06:02:51;7.60;7.00;3.40
49343;PMS5003;35210;41.606;-87.602;2023-04-24T06:05:19;7.20;6.20;5.00
49343;PMS5003;35210;41.606;-87.602;2023-04-24T06:07:47;11.00;11.00;6.80
49343;PMS5003;35210;41.606;-87.602;2023-04-24T06:10:16;11.80;9.40;7.00
49343;PMS5003;35210;41.606;-87.602;2023-04-24T06:12:44;11.20;8.80;6.00
49343;PMS5003;35210;41.606;-87.602;2023-04-24T06:15:14;8.00;7.20;4.00
49343;PMS5003;35210;41.606;-87.602;2023-04-24T06:17:42;7.80;7.80;4.00
49343;PMS5003;35210;41.606;-87.602;2023-04-24T06:20:10;8.20;8.20;3.00
49343;PMS5003;35210;41.606;-87.602;2023-04-24T06:22:39;7.80;7.80;4.00
49343;PMS5003;35210;41.606;-87.602;2023-04-24T06:25:08;11.20;7.60;3.80
49343;PMS5003;35210;41.606;-87.602;2023-04-24T06:27:36;7.00;2.60;1.00
49343;PMS5003;35210;41.606;-87.602;2023-04-24T06:30:04;9.00;9.00;3.40
49343;PMS5003;35210;41.606;-87.602;2023-04-24T06:32:35;7.40;5.20;3.00
49343;PMS5003;35210;41.606;-87.602;2023-04-24T06:35:03;8.20;6.80;3.00
49343;PMS5003;35210;41.606;-87.602;2023-04-24T06:37:32;8.00;8.00;4.00
49343;PMS5003;35210;41.606;-87.602;2023-04-24T06:40:00;9.40;6.60;4.00
49343;PMS5003;35210;41.606;-87.602;2023-04-24T06:42:28;8.00;8.00;3.80
49343;PMS5003;35210;41.606;-87.602;2023-04-24T06:44:56;6.80;6.00;3.00
49343;PMS5003;35210;41.606;-87.602;2023-04-24T06:47:24;8.60;8.60;4.80
49343;PMS5003;35210;41.606;-87.602;2023-04-24T06:49:54;8.00;8.00;4.40
49343;PMS5003;35210;41.606;-87.602;2023-04-24T06:52:22;6.00;6.00;3.00
49343;PMS5003;35210;41.606;-87.602;2023-04-24T06:54:50;5.60;5.60;3.40
49343;PMS5003;35210;41.606;-87.602;2023-04-24T06:57:18;9.60;7.60;3.00
49343;PMS5003;35210;41.606;-87.602;2023-04-24T06:59:47;8.40;7.00;4.00
49343;PMS5003;35210;41.606;-87.602;2023-04-24T07:02:15;6.80;6.80;3.60
49343;PMS5003;35210;41.606;-87.602;2023-04-24T07:04:43;8.00;7.00;3.00
49343;PMS5003;35210;41.606;-87.602;2023-04-24T07:07:14;5.60;4.80;3.00
49343;PMS5003;35210;41.606;-87.602;2023-04-24T07:09:42;6.80;4.80;4.00
49343;PMS5003;35210;41.606;-87.602;2023-04-24T07:12:11;5.60;4.60;2.80
49343;PMS5003;35210;41.606;-87.602;2023-04-24T07:14:39;8.20;6.20;2.40
49343;PMS5003;35210;41.606;-87.602;2023-04-24T07:17:07;6.80;5.60;3.20
49343;PMS5003;35210;41.606;-87.602;2023-04-24T07:19:35;7.40;7.00;3.20
49343;PMS5003;35210;41.606;-87.602;2023-04-24T07:22:03;4.80;4.80;3.00
49343;PMS5003;35210;41.606;-87.602;2023-04-24T07:24:33;4.40;4.40;3.00
49343;PMS5003;35210;41.606;-87.602;2023-04-24T07:27:01;6.00;4.60;4.00
49343;PMS5003;35210;41.606;-87.602;2023-04-24T07:29:29;10.20;7.60;4.00
49343;PMS5003;35210;41.606;-87.602;2023-04-24T07:31:58;6.00;6.00;3.40
49343;PMS5003;35210;41.606;-87.602;2023-04-24T07:34:26;7.20;6.20;3.00
49343;PMS5003;35210;41.606;-87.602;2023-04-24T07:36:54;3.00;2.40;2.20
49343;PMS5003;35210;41.606;-87.602;2023-04-24T07:39:22;10.00;6.80;3.40
49343;PMS5003;35210;41.606;-87.602;2023-04-24T07:41:53;5.20;3.60;1.00
49343;PMS5003;35210;41.606;-87.602;2023-04-24T07:44:21;7.20;7.20;3.80
49343;PMS5003;35210;41.606;-87.602;2023-04-24T07:46:49;7.40;7.40;4.00
49343;PMS5003;35210;41.606;-87.602;2023-04-24T07:49:18;9.00;8.00;4.00
49343;PMS5003;35210;41.606;-87.602;2023-04-24T07:51:46;7.40;7.40;3.60
49343;PMS5003;35210;41.606;-87.602;2023-04-24T07:54:14;6.40;6.40;3.80
49343;PMS5003;35210;41.606;-87.602;2023-04-24T07:56:42;8.40;6.80;4.00
49343;PMS5003;35210;41.606;-87.602;2023-04-24T07:59:12;8.60;8.00;6.00
49343;PMS5003;35210;41.606;-87.602;2023-04-24T08:01:40;11.80;11.60;5.60
49343;PMS5003;35210;41.606;-87.602;2023-04-24T08:04:08;12.60;10.60;7.40
49343;PMS5003;35210;41.606;-87.602;2023-04-24T08:06:36;11.60;9.20;6.20
49343;PMS5003;35210;41.606;-87.602;2023-04-24T08:09:04;11.20;11.20;7.00
49343;PMS5003;35210;41.606;-87.602;2023-04-24T08:11:32;10.00;10.00;7.00
49343;PMS5003;35210;41.606;-87.602;2023-04-24T08:14:00;11.60;9.80;6.40
49343;PMS5003;35210;41.606;-87.602;2023-04-24T08:16:31;17.00;13.00;7.20
49343;PMS5003;35210;41.606;-87.602;2023-04-24T08:19:00;11.80;11.60;7.20
49343;PMS5003;35210;41.606;-87.602;2023-04-24T08:21:28;11.40;10.00;7.00
49343;PMS5003;35210;41.606;-87.602;2023-04-24T08:23:57;8.80;8.80;7.00
49343;PMS5003;35210;41.606;-87.602;2023-04-24T08:26:25;14.80;13.00;7.20
49343;PMS5003;35210;41.606;-87.602;2023-04-24T08:28:53;8.80;7.80;4.00
49343;PMS5003;35210;41.606;-87.602;2023-04-24T08:31:21;7.80;6.80;4.00
49343;PMS5003;35210;41.606;-87.602;2023-04-24T08:33:52;8.80;8.80;4.00
49343;PMS5003;35210;41.606;-87.602;2023-04-24T08:36:20;11.40;9.40;6.00
49343;PMS5003;35210;41.606;-87.602;2023-04-24T08:38:48;11.60;9.00;6.00
49343;PMS5003;35210;41.606;-87.602;2023-04-24T08:41:16;10.20;7.80;6.60
49343;PMS5003;35210;41.606;-87.602;2023-04-24T08:43:46;10.60;8.40;4.40
49343;PMS5003;35210;41.606;-87.602;2023-04-24T08:46:15;7.60;7.60;4.80
49343;PMS5003;35210;41.606;-87.602;2023-04-24T08:48:45;7.00;7.00;3.00
49343;PMS5003;35210;41.606;-87.602;2023-04-24T08:51:15;7.00;7.00;6.00
49343;PMS5003;35210;41.606;-87.602;2023-04-24T08:53:45;8.60;5.20;2.60
49343;PMS5003;35210;41.606;-87.602;2023-04-24T08:56:13;6.40;6.40;4.00
49343;PMS5003;35210;41.606;-87.602;2023-04-24T08:58:41;10.40;7.00;3.60
49343;PMS5003;35210;41.606;-87.602;2023-04-24T09:01:10;7.20;6.00;3.00
49343;PMS5003;35210;41.606;-87.602;2023-04-24T09:03:39;4.40;3.80;2.00
49343;PMS5003;35210;41.606;-87.602;2023-04-24T09:06:08;8.00;7.00;4.20
49343;PMS5003;35210;41.606;-87.602;2023-04-24T09:08:39;8.60;6.60;4.00
49343;PMS5003;35210;41.606;-87.602;2023-04-24T09:11:09;8.60;8.60;4.80
49343;PMS5003;35210;41.606;-87.602;2023-04-24T09:13:38;13.00;10.40;6.00
49343;PMS5003;35210;41.606;-87.602;2023-04-24T09:16:06;7.00;7.00;5.20
49343;PMS5003;35210;41.606;-87.602;2023-04-24T09:18:34;4.20;3.20;2.00
49343;PMS5003;35210;41.606;-87.602;2023-04-24T09:21:03;6.20;6.00;3.00
49343;PMS5003;35210;41.606;-87.602;2023-04-24T09:23:34;7.00;7.00;3.00
49343;PMS5003;35210;41.606;-87.602;2023-04-24T09:26:03;9.80;8.80;4.00
49343;PMS5003;35210;41.606;-87.602;2023-04-24T09:28:32;8.00;8.00;6.00
49343;PMS5003;35210;41.606;-87.602;2023-04-24T09:31:04;7.60;7.00;4.20
49343;PMS5003;35210;41.606;-87.602;2023-04-24T09:33:34;7.80;6.00;5.00
49343;PMS5003;35210;41.606;-87.602;2023-04-24T09:36:02;8.00;6.80;3.00
49343;PMS5003;35210;41.606;-87.602;2023-04-24T09:38:32;9.00;8.00;4.60
49343;PMS5003;35210;41.606;-87.602;2023-04-24T09:41:04;9.20;7.20;5.00
49343;PMS5003;35210;41.606;-87.602;2023-04-24T09:43:33;9.80;7.40;5.00
49343;PMS5003;35210;41.606;-87.602;2023-04-24T09:46:04;9.60;8.20;6.00
49343;PMS5003;35210;41.606;-87.602;2023-04-24T09:48:34;11.20;7.40;5.20
49343;PMS5003;35210;41.606;-87.602;2023-04-24T09:51:04;8.40;7.20;4.00
49343;PMS5003;35210;41.606;-87.602;2023-04-24T09:53:36;8.00;8.00;6.00
49343;PMS5003;35210;41.606;-87.602;2023-04-24T09:56:08;6.80;6.80;5.00
49343;PMS5003;35210;41.606;-87.602;2023-04-24T09:58:38;10.20;10.20;6.20
49343;PMS5003;35210;41.606;-87.602;2023-04-24T10:01:06;8.40;8.40;4.20
49343;PMS5003;35210;41.606;-87.602;2023-04-24T10:03:34;5.40;5.40;2.00
49343;PMS5003;35210;41.606;-87.602;2023-04-24T10:06:03;9.20;8.00;4.20
49343;PMS5003;35210;41.606;-87.602;2023-04-24T10:08:34;6.40;6.40;3.40
49343;PMS5003;35210;41.606;-87.602;2023-04-24T10:11:03;8.00;8.00;4.40
49343;PMS5003;35210;41.606;-87.602;2023-04-24T10:13:33;17.00;11.80;7.00
49343;PMS5003;35210;41.606;-87.602;2023-04-24T10:16:02;8.60;5.20;3.00
49343;PMS5003;35210;41.606;-87.602;2023-04-24T10:18:31;10.00;10.00;6.00
49343;PMS5003;35210;41.606;-87.602;2023-04-24T10:21:00;10.00;8.00;6.00
49343;PMS5003;35210;41.606;-87.602;2023-04-24T10:23:29;11.20;11.20;6.80
49343;PMS5003;35210;41.606;-87.602;2023-04-24T10:25:58;8.60;7.00;5.00
49343;PMS5003;35210;41.606;-87.602;2023-04-24T10:28:28;8.40;8.40;6.80
49343;PMS5003;35210;41.606;-87.602;2023-04-24T10:31:00;11.00;8.80;5.60
49343;PMS5003;35210;41.606;-87.602;2023-04-24T10:33:29;11.20;11.20;7.40
49343;PMS5003;35210;41.606;-87.602;2023-04-24T10:35:58;11.00;8.60;4.00
49343;PMS5003;35210;41.606;-87.602;2023-04-24T10:38:27;10.60;9.60;5.00
49343;PMS5003;35210;41.606;-87.602;2023-04-24T10:40:57;10.80;10.00;5.40
49343;PMS5003;35210;41.606;-87.602;2023-04-24T10:43:35;6.40;5.60;2.80
49343;PMS5003;35210;41.606;-87.602;2023-04-24T10:46:05;11.40;10.40;6.00
49343;PMS5003;35210;41.606;-87.602;2023-04-24T10:48:34;15.20;15.00;7.60
49343;PMS5003;35210;41.606;-87.602;2023-04-24T10:51:03;13.60;12.00;7.40
49343;PMS5003;35210;41.606;-87.602;2023-04-24T10:53:31;16.60;14.00;8.00
49343;PMS5003;35210;41.606;-87.602;2023-04-24T10:56:03;15.80;13.20;7.60
49343;PMS5003;35210;41.606;-87.602;2023-04-24T10:58:41;15.20;13.40;8.00
49343;PMS5003;35210;41.606;-87.602;2023-04-24T11:01:24;16.40;13.60;7.60
49343;PMS5003;35210;41.606;-87.602;2023-04-24T11:03:54;12.20;11.00;6.00
49343;PMS5003;35210;41.606;-87.602;2023-04-24T11:06:30;15.20;13.00;6.60
49343;PMS5003;35210;41.606;-87.602;2023-04-24T11:09:03;9.20;9.20;5.60
49343;PMS5003;35210;41.606;-87.602;2023-04-24T11:11:33;11.00;9.20;6.00
49343;PMS5003;35210;41.606;-87.602;2023-04-24T11:14:03;10.20;7.20;3.00
49343;PMS5003;35210;41.606;-87.602;2023-04-24T11:16:35;8.60;8.60;6.40
49343;PMS5003;35210;41.606;-87.602;2023-04-24T11:19:06;10.00;8.20;5.00
49343;PMS5003;35210;41.606;-87.602;2023-04-24T11:21:40;8.40;8.40;4.20
49343;PMS5003;35210;41.606;-87.602;2023-04-24T11:24:22;16.40;12.20;6.00
49343;PMS5003;35210;41.606;-87.602;2023-04-24T11:26:55;1.60;1.60;1.20
49343;PMS5003;35210;41.606;-87.602;2023-04-24T11:29:37;13.20;12.60;7.00
49343;PMS5003;35210;41.606;-87.602;2023-04-24T11:32:23;12.20;11.00;6.20
49343;PMS5003;35210;41.606;-87.602;2023-04-24T11:34:53;10.60;10.60;6.00
49343;PMS5003;35210;41.606;-87.602;2023-04-24T11:37:22;12.40;12.40;7.20
49343;PMS5003;35210;41.606;-87.602;2023-04-24T11:39:54;10.20;8.00;5.20
49343;PMS5003;35210;41.606;-87.602;2023-04-24T11:42:23;8.60;8.60;4.80
49343;PMS5003;35210;41.606;-87.602;2023-04-24T11:44:53;11.00;7.80;5.80
49343;PMS5003;35210;41.606;-87.602;2023-04-24T11:47:32;8.60;8.60;5.00
49343;PMS5003;35210;41.606;-87.602;2023-04-24T11:50:01;9.20;9.20;4.20
49343;PMS5003;35210;41.606;-87.602;2023-04-24T11:52:30;7.40;6.40;3.80
49343;PMS5003;35210;41.606;-87.602;2023-04-24T11:55:00;7.00;7.00;4.20
49343;PMS5003;35210;41.606;-87.602;2023-04-24T11:57:31;9.60;9.20;6.80
49343;PMS5003;35210;41.606;-87.602;2023-04-24T12:00:02;12.00;10.60;5.20
49343;PMS5003;35210;41.606;-87.602;2023-04-24T12:02:33;11.20;9.60;6.00
49343;PMS5003;35210;41.606;-87.602;2023-04-24T12:05:01;9.20;7.60;3.60
49343;PMS5003;35210;41.606;-87.602;2023-04-24T12:07:29;9.80;9.80;3.20
49343;PMS5003;35210;41.606;-87.602;2023-04-24T12:10:08;14.20;12.00;7.00
49343;PMS5003;35210;41.606;-87.602;2023-04-24T12:12:36;11.40;11.00;6.00
49343;PMS5003;35210;41.606;-87.602;2023-04-24T12:15:06;11.20;9.20;6.00
49343;PMS5003;35210;41.606;-87.602;2023-04-24T12:17:37;10.00;6.80;4.00
49343;PMS5003;35210;41.606;-87.602;2023-04-24T12:20:09;9.00;8.60;4.00
49343;PMS5003;35210;41.606;-87.602;2023-04-24T12:22:45;12.80;11.20;3.80
49343;PMS5003;35210;41.606;-87.602;2023-04-24T12:25:14;11.60;9.00;6.00
49343;PMS5003;35210;41.606;-87.602;2023-04-24T12:27:43;9.00;8.00;3.60
49343;PMS5003;35210;41.606;-87.602;2023-04-24T12:30:12;11.60;7.60;4.20
49343;PMS5003;35210;41.606;-87.602;2023-04-24T12:32:43;9.20;7.00;4.40
49343;PMS5003;35210;41.606;-87.602;2023-04-24T12:35:13;8.20;8.20;3.80
49343;PMS5003;35210;41.606;-87.602;2023-04-24T12:37:46;8.20;8.20;3.40
49343;PMS5003;35210;41.606;-87.602;2023-04-24T12:40:15;13.20;11.60;6.20
49343;PMS5003;35210;41.606;-87.602;2023-04-24T12:42:45;9.40;8.40;4.40
49343;PMS5003;35210;41.606;-87.602;2023-04-24T12:45:14;8.60;8.60;6.00
49343;PMS5003;35210;41.606;-87.602;2023-04-24T12:47:45;8.60;6.40;2.20
49343;PMS5003;35210;41.606;-87.602;2023-04-24T12:50:14;12.60;12.40;6.80
49343;PMS5003;35210;41.606;-87.602;2023-04-24T12:52:43;7.60;7.60;4.40
49343;PMS5003;35210;41.606;-87.602;2023-04-24T12:55:12;15.00;10.20;7.00
49343;PMS5003;35210;41.606;-87.602;2023-04-24T12:57:40;11.20;11.20;7.00
49343;PMS5003;35210;41.606;-87.602;2023-04-24T13:00:08;12.60;9.00;6.00
49343;PMS5003;35210;41.606;-87.602;2023-04-24T13:02:37;14.00;9.80;6.60
49343;PMS5003;35210;41.606;-87.602;2023-04-24T13:05:08;12.40;11.80;6.60
49343;PMS5003;35210;41.606;-87.602;2023-04-24T13:07:37;10.00;10.00;7.00
49343;PMS5003;35210;41.606;-87.602;2023-04-24T13:10:05;10.20;9.60;6.00
49343;PMS5003;35210;41.606;-87.602;2023-04-24T13:12:44;14.00;9.80;6.20
49343;PMS5003;35210;41.606;-87.602;2023-04-24T13:15:12;12.60;10.00;6.00
49343;PMS5003;35210;41.606;-87.602;2023-04-24T13:17:40;13.60;9.80;6.80
49343;PMS5003;35210;41.606;-87.602;2023-04-24T13:20:08;14.20;11.60;7.20
49343;PMS5003;35210;41.606;-87.602;2023-04-24T13:22:37;10.20;10.00;4.20
49343;PMS5003;35210;41.606;-87.602;2023-04-24T13:25:05;11.80;10.80;7.00
49343;PMS5003;35210;41.606;-87.602;2023-04-24T13:27:34;13.80;11.00;6.80
49343;PMS5003;35210;41.606;-87.602;2023-04-24T13:30:04;10.00;9.00;5.20
49343;PMS5003;35210;41.606;-87.602;2023-04-24T13:32:33;14.60;10.20;6.20
49343;PMS5003;35210;41.606;-87.602;2023-04-24T13:35:03;13.20;9.40;4.00
49343;PMS5003;35210;41.606;-87.602;2023-04-24T13:37:31;12.40;9.80;3.20
49343;PMS5003;35210;41.606;-87.602;2023-04-24T13:39:59;11.00;10.00;4.80
49343;PMS5003;35210;41.606;-87.602;2023-04-24T13:42:27;14.60;14.60;8.00
49343;PMS5003;35210;41.606;-87.602;2023-04-24T13:44:55;16.60;13.60;6.80
49343;PMS5003;35210;41.606;-87.602;2023-04-24T13:47:25;12.20;12.20;8.00
49343;PMS5003;35210;41.606;-87.602;2023-04-24T13:49:53;10.40;10.40;6.40
49343;PMS5003;35210;41.606;-87.602;2023-04-24T13:52:21;12.60;12.20;7.40
49343;PMS5003;35210;41.606;-87.602;2023-04-24T13:54:49;12.20;10.60;7.00
49343;PMS5003;35210;41.606;-87.602;2023-04-24T13:57:18;9.60;9.20;5.00
49343;PMS5003;35210;41.606;-87.602;2023-04-24T13:59:46;12.60;11.20;8.20
49343;PMS5003;35210;41.606;-87.602;2023-04-24T14:02:14;12.40;10.60;5.00